Daingerfield, Texas
Current Conditions -  °F | °C
As of 5:55 PM on Monday 22 Dec 2014 (Local Time) from KOSA Reporting Station
Clear Clear  
Wind Chill: 62°   Ceiling: Unl
Heat Index: 62°   Visibility: 10mi
Dew Point: 46°   Wind: 5mph
Humidity: 55%   Direction: 280°W
Pressure: 29.61"   Gusts: NA
Location:  33.03°N, 94.72°W
Report Text: KOSA 222355Z AUTO 28004KT 10SM CLR 17/08 A2961 RMK AO1 T01670075 10211 20167
Loading
Personal Weather Stations






























Interactive Weather Map New forecast layout! Learn more

10-Day Weather Forecast

Advertisements
Track Severe Weather on mobile